Time;durP1;ratioP1;P1;durP2;ratioP2;P2;SDS_P1;SDS_P2;PMS_P1;PMS_P2;Temp;Humidity;BMP_temperature;BMP_pressure;BME280_temperature;BME280_humidity;BME280_pressure;Samples;Min_cycle;Max_cycle;Signal;HPM_P1;HPM_P2
2022/09/10 00:01:37;;;;;;;33.85;11.52;;;;;;;6.26;70.64;101052.84;5012716;28;20168;-50
2022/09/10 00:04:09;;;;;;;26.02;11.30;;;;;;;6.27;70.54;101057.22;5023890;28;20363;-54
2022/09/10 00:06:37;;;;;;;30.38;11.35;;;;;;;6.19;70.79;101038.97;5032595;28;20072;-53
2022/09/10 00:09:04;;;;;;;26.90;11.30;;;;;;;6.21;70.80;101062.81;5029928;28;20033;-60
2022/09/10 00:11:30;;;;;;;26.88;11.02;;;;;;;6.18;70.62;101054.03;5032613;28;20052;-53
2022/09/10 00:13:58;;;;;;;25.02;10.32;;;;;;;6.12;71.26;101041.00;5030564;28;20112;-53
2022/09/10 00:16:24;;;;;;;32.45;11.00;;;;;;;6.15;71.11;101059.50;5030270;28;20034;-49
2022/09/10 00:18:50;;;;;;;27.08;10.85;;;;;;;6.14;70.84;101060.44;5031862;28;20025;-50
2022/09/10 00:21:19;;;;;;;28.52;10.77;;;;;;;6.14;70.90;101057.75;5030016;28;20378;-54
2022/09/10 00:23:45;;;;;;;27.65;10.57;;;;;;;6.07;70.71;101050.97;5032340;28;20029;-52
2022/09/10 00:26:24;;;;;;;19.98;10.23;;;;;;;6.16;71.10;101055.91;5032140;28;20470;-52
2022/09/10 00:28:53;;;;;;;20.95;10.10;;;;;;;6.11;70.52;101057.91;5030302;28;20750;-52
2022/09/10 00:31:20;;;;;;;21.17;10.57;;;;;;;6.08;70.96;101058.03;5030969;28;20363;-51
2022/09/10 00:33:46;;;;;;;24.00;10.57;;;;;;;6.08;70.64;101051.84;5030438;28;20030;-51
2022/09/10 00:36:23;;;;;;;23.63;10.20;;;;;;;6.12;70.94;101054.31;5012599;28;20053;-49
2022/09/10 00:38:50;;;;;;;28.17;10.68;;;;;;;6.06;71.07;101056.34;5012083;28;20034;-50
2022/09/10 00:41:18;;;;;;;30.35;10.70;;;;;;;6.03;71.14;101054.72;5013302;28;20532;-51
2022/09/10 00:43:53;;;;;;;19.48;10.38;;;;;;;6.01;71.31;101052.09;5012177;28;20041;-51
2022/09/10 00:46:42;;;;;;;24.10;10.10;;;;;;;6.06;71.12;101059.91;5012997;28;20467;-53
2022/09/10 00:49:35;;;;;;;24.38;10.68;;;;;;;6.03;71.04;101065.34;5011905;28;20475;-48
2022/09/10 00:52:01;;;;;;;22.63;9.95;;;;;;;5.95;71.17;101051.44;5012088;28;20103;-46
2022/09/10 00:54:29;;;;;;;20.52;10.25;;;;;;;5.94;71.33;101068.34;5012823;28;20029;-49
2022/09/10 00:57:01;;;;;;;17.95;9.68;;;;;;;5.91;71.82;101056.06;5011637;28;20042;-54
2022/09/10 00:59:27;;;;;;;24.30;11.32;;;;;;;5.88;71.63;101074.75;5012850;28;20079;-49
2022/09/10 01:01:54;;;;;;;25.10;10.90;;;;;;;5.87;71.85;101068.59;5011765;28;20034;-53
2022/09/10 01:04:20;;;;;;;26.15;10.57;;;;;;;5.83;71.92;101052.81;5012165;28;20026;-53
2022/09/10 01:06:50;;;;;;;25.10;11.32;;;;;;;5.86;71.51;101066.88;5011871;28;20107;-51
2022/09/10 01:09:17;;;;;;;22.50;11.00;;;;;;;5.85;72.01;101057.16;5011709;28;20033;-51
2022/09/10 01:12:01;;;;;;;23.80;10.77;;;;;;;5.88;72.16;101057.03;5012418;28;20045;-52
2022/09/10 01:14:56;;;;;;;21.83;10.55;;;;;;;5.94;71.88;101058.56;5011407;28;20107;-52
2022/09/10 01:17:52;;;;;;;21.88;10.52;;;;;;;5.94;71.43;101066.56;5012462;28;20574;-47
2022/09/10 01:20:20;;;;;;;;;;;;;;;6.17;70.26;101064.75;5011994;28;20030;-51
2022/09/10 01:23:10;;;;;;;19.98;10.55;;;;;;;5.99;70.81;101072.53;5012412;28;20400;-52
2022/09/10 01:25:44;;;;;;;21.27;10.90;;;;;;;5.91;70.84;101071.13;5011702;28;20021;-52
2022/09/10 01:28:17;;;;;;;24.15;11.48;;;;;;;5.83;71.48;101064.34;5011174;28;20068;-53
2022/09/10 01:30:47;;;;;;;21.90;10.52;;;;;;;5.81;71.64;101073.28;5029550;28;20106;-51
2022/09/10 01:33:23;;;;;;;23.15;11.45;;;;;;;5.82;72.01;101081.22;5030873;28;20117;-53
2022/09/10 01:36:00;;;;;;;17.98;10.48;;;;;;;5.77;71.51;101069.88;5017719;28;20085;-53
2022/09/10 01:38:37;;;;;;;23.25;10.65;;;;;;;5.77;71.72;101080.50;5011269;28;20475;-50
2022/09/10 01:41:03;;;;;;;18.50;10.10;;;;;;;5.71;71.65;101081.63;5017783;28;20031;-53
2022/09/10 01:43:29;;;;;;;28.55;10.38;;;;;;;5.71;71.62;101078.09;5030766;28;20025;-49
2022/09/10 01:46:40;;;;;;;18.75;10.15;;;;;;;5.79;71.49;101075.13;5030911;28;20038;-54
2022/09/10 01:49:35;;;;;;;23.75;10.45;;;;;;;5.80;71.42;101069.78;5015130;28;20485;-51
2022/09/10 01:52:15;;;;;;;23.98;10.93;;;;;;;5.71;71.33;101072.78;5011178;28;20049;-51
2022/09/10 01:55:05;;;;;;;22.98;10.73;;;;;;;5.71;71.53;101081.63;5011878;28;20033;-50
2022/09/10 01:57:47;;;;;;;20.25;10.55;;;;;;;5.65;71.39;101078.34;5011107;28;20053;-48
2022/09/10 02:00:16;;;;;;;21.48;10.98;;;;;;;5.60;71.88;101074.09;5010879;28;20029;-56
2022/09/10 02:02:51;;;;;;;23.35;10.57;;;;;;;5.62;71.81;101081.13;5029874;28;20037;-48
2022/09/10 02:05:19;;;;;;;22.30;11.25;;;;;;;5.59;71.86;101080.34;5030586;28;20030;-51
2022/09/10 02:07:47;;;;;;;29.38;11.80;;;;;;;5.57;71.76;101081.31;5029105;28;20045;-53
2022/09/10 02:10:13;;;;;;;22.70;10.55;;;;;;;5.56;71.95;101068.97;5030827;28;20120;-53
2022/09/10 02:12:39;;;;;;;29.63;11.18;;;;;;;5.55;72.19;101070.75;5027088;28;20530;-52
2022/09/10 02:15:07;;;;;;;24.13;11.13;;;;;;;5.53;71.97;101077.91;5010996;28;20034;-51
2022/09/10 02:17:37;;;;;;;24.50;10.65;;;;;;;5.55;72.09;101078.72;5010909;28;20033;-53
2022/09/10 02:20:07;;;;;;;22.85;11.20;;;;;;;5.52;71.99;101078.81;5025235;28;20127;-47
2022/09/10 02:22:35;;;;;;;24.77;10.48;;;;;;;5.49;72.46;101076.28;5030544;28;20034;-53
2022/09/10 02:25:01;;;;;;;22.48;11.25;;;;;;;5.48;71.88;101079.88;5023513;28;20036;-48
2022/09/10 02:27:28;;;;;;;23.85;10.82;;;;;;;5.45;71.83;101067.59;5010735;28;20577;-52
2022/09/10 02:29:57;;;;;;;21.20;10.48;;;;;;;5.46;72.23;101065.78;5010900;28;20387;-54
2022/09/10 02:32:23;;;;;;;22.48;11.40;;;;;;;5.26;72.10;101035.56;5028108;28;20074;-49
2022/09/10 02:34:48;;;;;;;21.42;10.57;;;;;;;5.43;72.00;101063.25;5029907;28;20455;-51
2022/09/10 02:37:15;;;;;;;21.77;10.15;;;;;;;5.43;72.37;101068.56;5022072;28;20478;-51
2022/09/10 02:39:41;;;;;;;21.95;11.10;;;;;;;5.38;72.03;101059.94;5010816;28;20034;-58
2022/09/10 02:42:07;;;;;;;23.00;10.57;;;;;;;5.40;72.34;101068.69;5010647;28;20077;-48
2022/09/10 02:44:33;;;;;;;22.33;10.18;;;;;;;5.38;72.21;101067.91;5029429;28;20033;-48
2022/09/10 02:46:59;;;;;;;21.13;11.07;;;;;;;5.21;72.13;101040.19;5030147;28;20042;-49
2022/09/10 02:49:25;;;;;;;21.38;11.40;;;;;;;5.41;71.52;101070.44;5028120;28;20081;-52
2022/09/10 02:51:50;;;;;;;21.33;10.82;;;;;;;5.25;72.01;101038.28;5010517;28;20041;-48
2022/09/10 02:54:18;;;;;;;19.85;9.93;;;;;;;5.43;71.69;101071.22;5011577;28;20128;-53
2022/09/10 02:56:47;;;;;;;21.75;10.25;;;;;;;5.45;72.00;101074.69;5026387;28;20196;-52
2022/09/10 02:59:13;;;;;;;17.80;9.77;;;;;;;5.46;71.69;101076.41;5033889;28;20096;-55
2022/09/10 03:01:38;;;;;;;17.95;10.52;;;;;;;5.44;71.37;101060.56;5034004;28;20037;-49
2022/09/10 03:04:04;;;;;;;18.50;10.52;;;;;;;5.44;71.25;101068.53;5020020;28;20538;-51
2022/09/10 03:06:30;;;;;;;21.15;10.35;;;;;;;5.48;71.46;101069.25;5013998;28;20050;-47
2022/09/10 03:08:56;;;;;;;24.92;10.98;;;;;;;5.50;71.44;101066.56;5019110;28;20029;-50
2022/09/10 03:11:22;;;;;;;18.05;10.10;;;;;;;5.53;71.74;101077.91;5033682;28;20075;-49
2022/09/10 03:13:49;;;;;;;20.73;10.13;;;;;;;5.55;71.52;101068.09;5033480;28;20079;-51
2022/09/10 03:16:17;;;;;;;20.55;11.10;;;;;;;5.47;71.10;101059.56;5017760;28;20034;-48
2022/09/10 03:18:43;;;;;;;28.63;10.73;;;;;;;5.57;70.98;101062.72;5013863;28;20069;-52
2022/09/10 03:21:17;;;;;;;24.55;11.18;;;;;;;5.87;71.45;101071.25;5021111;28;20033;-51
2022/09/10 03:23:45;;;;;;;20.58;10.90;;;;;;;6.51;68.97;101068.63;5033639;28;20101;-47
2022/09/10 03:26:13;;;;;;;15.70;10.15;;;;;;;7.29;66.69;101070.47;5033174;28;20033;-54
2022/09/10 03:28:40;;;;;;;17.23;9.50;;;;;;;8.17;63.60;101073.34;5013185;28;20394;-49
2022/09/10 03:31:06;;;;;;;18.73;9.57;;;;;;;9.24;59.98;101067.78;5013288;28;20030;-51
2022/09/10 03:33:32;;;;;;;20.83;9.50;;;;;;;10.36;56.33;101072.13;5014242;28;20502;-49
2022/09/10 03:35:57;;;;;;;21.15;9.70;;;;;;;11.34;53.50;101063.50;5013503;28;20058;-50
2022/09/10 03:38:24;;;;;;;17.52;9.27;;;;;;;12.08;50.56;101039.06;5013813;28;20125;-49
2022/09/10 03:40:51;;;;;;;18.58;9.93;;;;;;;13.06;48.27;101068.13;5032833;28;20036;-50
2022/09/10 03:43:16;;;;;;;18.23;9.70;;;;;;;13.75;46.19;101061.41;5032763;28;20029;-47
2022/09/10 03:45:42;;;;;;;17.65;9.57;;;;;;;14.44;44.28;101062.50;5028927;28;20109;-47
2022/09/10 03:48:07;;;;;;;27.40;9.70;;;;;;;15.15;42.32;101064.22;5013155;28;20045;-52
2022/09/10 03:50:32;;;;;;;15.60;9.63;;;;;;;15.79;40.91;101057.25;5011995;28;20065;-53
2022/09/10 03:52:58;;;;;;;20.02;9.80;;;;;;;16.45;39.33;101060.78;5025950;28;20115;-54
2022/09/10 03:55:23;;;;;;;23.90;10.23;;;;;;;16.97;37.87;101050.94;5032541;28;20120;-52
2022/09/10 03:57:49;;;;;;;19.90;9.63;;;;;;;17.68;36.50;101051.91;5032345;28;20029;-54
2022/09/10 04:00:15;;;;;;;19.58;9.50;;;;;;;18.44;34.98;101056.63;5014377;28;20371;-53
2022/09/10 04:02:40;;;;;;;16.55;9.35;;;;;;;19.10;33.73;101054.03;5018364;28;20021;-51
2022/09/10 04:05:07;;;;;;;18.40;9.20;;;;;;;19.77;32.56;101061.06;5030587;28;20042;-53
2022/09/10 04:07:33;;;;;;;19.95;9.80;;;;;;;20.34;31.57;101057.22;5031030;28;20080;-51
2022/09/10 04:09:59;;;;;;;17.00;9.25;;;;;;;20.90;30.31;101051.47;5030985;28;20117;-52
2022/09/10 04:12:25;;;;;;;16.85;9.30;;;;;;;21.63;28.73;101051.94;5014201;28;20124;-48
2022/09/10 04:14:52;;;;;;;16.27;9.10;;;;;;;22.32;27.66;101057.16;5012637;28;20037;-51
2022/09/10 04:17:17;;;;;;;16.30;9.80;;;;;;;22.95;26.36;101051.09;5016841;28;20120;-51
2022/09/10 04:19:43;;;;;;;15.40;9.18;;;;;;;23.56;25.11;101053.22;5023045;28;20109;-47
2022/09/10 04:22:09;;;;;;;12.60;8.25;;;;;;;24.13;24.11;101044.84;5022052;28;20065;-48
2022/09/10 04:24:34;;;;;;;11.32;8.30;;;;;;;24.68;23.31;101051.00;5015393;28;20037;-48
2022/09/10 04:27:00;;;;;;;14.75;8.32;;;;;;;25.22;22.54;101047.16;5012171;28;20041;-53
2022/09/10 04:29:26;;;;;;;10.95;7.95;;;;;;;25.71;21.76;101055.75;5012143;28;20030;-52
2022/09/10 04:31:54;;;;;;;11.90;7.43;;;;;;;26.15;21.01;101029.16;5015596;28;20120;-51
2022/09/10 04:34:19;;;;;;;14.05;7.47;;;;;;;26.76;20.44;101044.19;5021132;28;20079;-53
2022/09/10 04:36:45;;;;;;;12.27;7.63;;;;;;;27.27;19.73;101049.56;5020125;28;20135;-50
2022/09/10 04:39:10;;;;;;;13.60;7.38;;;;;;;27.72;18.74;101038.09;5020686;28;20215;-57
2022/09/10 04:41:36;;;;;;;12.35;7.85;;;;;;;28.17;18.13;101035.66;5022211;28;20029;-51
2022/09/10 04:44:02;;;;;;;13.30;7.28;;;;;;;28.83;17.52;101057.00;5019786;28;20032;-58
2022/09/10 04:46:27;;;;;;;12.80;7.43;;;;;;;29.24;17.09;101042.03;5019821;28;20039;-54
2022/09/10 04:48:53;;;;;;;10.15;7.10;;;;;;;29.80;16.75;101053.44;5021757;28;20033;-53
2022/09/10 04:51:18;;;;;;;12.82;7.57;;;;;;;30.24;16.04;101053.56;5022101;28;20386;-57
2022/09/10 04:53:44;;;;;;;12.65;7.32;;;;;;;30.70;15.77;101068.06;5022398;28;20514;-50
2022/09/10 04:56:10;;;;;;;9.05;6.63;;;;;;;30.95;15.79;101058.88;5019169;28;20422;-53
2022/09/10 04:58:35;;;;;;;9.73;6.82;;;;;;;31.03;14.96;101049.41;5020809;28;20112;-54
2022/09/10 05:01:01;;;;;;;11.82;6.55;;;;;;;31.63;14.58;101062.50;5022470;28;20053;-55
2022/09/10 05:03:27;;;;;;;10.35;6.80;;;;;;;32.21;14.51;101065.69;5019150;28;20026;-52
2022/09/10 05:05:52;;;;;;;9.70;6.13;;;;;;;32.75;13.53;101063.94;5019094;28;20446;-51
2022/09/10 05:08:18;;;;;;;9.93;5.68;;;;;;;33.15;13.48;101062.31;5019392;28;20041;-53
2022/09/10 05:10:44;;;;;;;11.45;6.45;;;;;;;33.55;13.11;101060.63;5021078;28;20390;-53
2022/09/10 05:13:10;;;;;;;8.75;6.45;;;;;;;34.03;12.97;101058.50;5024789;28;20033;-53
2022/09/10 05:15:37;;;;;;;11.85;5.95;;;;;;;34.58;12.32;101064.38;5027514;28;20633;-51
2022/09/10 05:18:02;;;;;;;12.40;6.40;;;;;;;34.88;12.46;101063.13;5012655;28;20061;-56
2022/09/10 05:20:28;;;;;;;10.75;6.07;;;;;;;35.29;11.66;101066.47;5016802;28;20090;-59
2022/09/10 05:22:53;;;;;;;11.73;5.80;;;;;;;35.59;11.11;101053.19;5010978;28;20370;-51
2022/09/10 05:25:19;;;;;;;8.93;5.95;;;;;;;36.02;11.27;101061.69;5011271;28;20077;-53
2022/09/10 05:27:45;;;;;;;9.25;5.55;;;;;;;36.30;10.88;101060.53;5014321;28;20101;-51
2022/09/10 05:30:11;;;;;;;9.52;5.13;;;;;;;36.67;10.24;101061.66;5028933;28;20340;-54
2022/09/10 05:32:38;;;;;;;6.93;4.88;;;;;;;36.94;9.82;101057.03;5028166;28;20055;-53
2022/09/10 05:35:08;;;;;;;8.93;5.00;;;;;;;37.41;10.22;101063.66;5029779;28;20362;-56
2022/09/10 05:37:33;;;;;;;5.10;4.40;;;;;;;37.84;9.82;101063.47;5026869;28;20033;-52
2022/09/10 05:39:59;;;;;;;8.02;4.95;;;;;;;38.31;9.49;101050.34;5016056;28;20034;-53
2022/09/10 05:42:25;;;;;;;7.15;4.75;;;;;;;38.62;8.77;101031.56;5010261;28;20065;-59
2022/09/10 05:44:52;;;;;;;9.45;5.15;;;;;;;38.91;9.08;101058.91;5012477;28;20042;-53
2022/09/10 05:47:17;;;;;;;9.20;5.05;;;;;;;39.05;8.91;101056.34;5028682;28;20124;-51
2022/09/10 05:49:45;;;;;;;13.60;5.05;;;;;;;39.55;8.82;101055.56;5017461;28;20091;-50
2022/09/10 05:52:11;;;;;;;7.60;5.47;;;;;;;39.86;8.23;101051.69;5030706;28;20029;-54
2022/09/10 05:54:36;;;;;;;8.27;5.07;;;;;;;40.27;7.99;101056.97;5020493;28;20033;-53
2022/09/10 05:57:02;;;;;;;8.82;5.40;;;;;;;40.60;8.05;101060.00;5018987;28;20029;-52
2022/09/10 05:59:28;;;;;;;6.25;5.38;;;;;;;40.61;8.00;101052.44;5028796;28;20072;-53
2022/09/10 06:01:54;;;;;;;10.10;6.00;;;;;;;40.81;7.80;101045.75;5018493;28;20053;-53
2022/09/10 06:04:19;;;;;;;10.15;5.22;;;;;;;41.12;7.36;101052.94;5017375;28;20057;-51
2022/09/10 06:06:46;;;;;;;7.32;4.90;;;;;;;41.36;7.08;101044.50;5012495;28;20064;-57
2022/09/10 06:09:12;;;;;;;9.80;5.30;;;;;;;41.60;7.22;101036.00;5025900;28;20030;-51
2022/09/10 06:11:38;;;;;;;14.50;5.10;;;;;;;42.11;6.37;101050.38;5009494;28;19922;-50
2022/09/10 06:14:04;;;;;;;8.15;4.68;;;;;;;42.36;6.81;101042.59;5018189;28;20103;-56
2022/09/10 06:16:30;;;;;;;9.65;4.43;;;;;;;42.63;6.50;101043.78;5016776;28;20041;-57
2022/09/10 06:18:56;;;;;;;7.07;4.72;;;;;;;43.01;6.21;101054.84;5010167;28;20041;-56
2022/09/10 06:21:23;;;;;;;9.40;4.72;;;;;;;43.10;6.21;101040.88;5025489;28;20037;-55
2022/09/10 06:23:52;;;;;;;7.65;4.10;;;;;;;43.69;5.70;101056.16;5030288;28;20038;-63
2022/09/10 06:26:18;;;;;;;5.65;3.95;;;;;;;43.91;5.89;101046.06;5027665;28;20038;-56
2022/09/10 06:28:44;;;;;;;7.75;4.05;;;;;;;44.17;5.80;101040.59;5028200;28;20033;-56
2022/09/10 06:31:15;;;;;;;4.72;3.92;;;;;;;44.49;5.83;101049.03;5014319;28;20034;-55
2022/09/10 06:33:42;;;;;;;7.35;4.15;;;;;;;44.51;5.36;101041.06;5015106;28;20030;-52
2022/09/10 06:36:08;;;;;;;5.45;3.40;;;;;;;44.59;5.20;101045.94;5024915;28;20033;-54
2022/09/10 06:38:35;;;;;;;4.97;3.47;;;;;;;44.82;5.29;101040.19;5031042;28;20030;-58
2022/09/10 06:41:03;;;;;;;5.15;3.40;;;;;;;45.28;4.94;101050.09;5028493;28;20033;-58
2022/09/10 06:43:33;;;;;;;4.95;3.28;;;;;;;45.27;5.05;101039.97;5016945;28;20025;-57
2022/09/10 06:45:58;;;;;;;4.47;2.78;;;;;;;44.11;4.95;101027.75;5021801;28;20033;-58
2022/09/10 06:48:27;;;;;;;3.60;2.53;;;;;;;43.71;5.53;101028.50;5022774;28;20052;-53
2022/09/10 06:50:53;;;;;;;4.70;3.05;;;;;;;44.06;5.53;101020.25;5014009;28;20030;-55
2022/09/10 06:53:20;;;;;;;10.13;3.42;;;;;;;44.43;5.03;101029.44;5021955;28;20050;-57
2022/09/10 06:55:49;;;;;;;3.33;2.70;;;;;;;44.92;5.05;101022.09;5014061;28;20042;-54
2022/09/10 06:58:15;;;;;;;9.27;3.05;;;;;;;45.35;4.57;101029.03;5031415;28;20041;-56
2022/09/10 07:00:41;;;;;;;5.43;3.08;;;;;;;45.39;4.62;101030.03;5031067;28;20036;-56
2022/09/10 07:03:07;;;;;;;5.43;2.53;;;;;;;45.42;4.45;101012.41;5032486;28;20116;-57
2022/09/10 07:05:33;;;;;;;4.68;2.75;;;;;;;45.93;4.52;101011.84;5017301;28;20117;-58
2022/09/10 07:07:58;;;;;;;2.92;2.30;;;;;;;46.31;4.10;101028.06;5018830;28;20453;-57
2022/09/10 07:10:24;;;;;;;3.55;1.90;;;;;;;46.47;3.91;101025.50;5013378;28;20113;-58
2022/09/10 07:12:49;;;;;;;2.10;2.00;;;;;;;46.54;3.93;101008.81;5030884;28;20481;-56
2022/09/10 07:15:15;;;;;;;4.25;1.77;;;;;;;46.75;3.80;101018.53;5027735;28;20338;-56
2022/09/10 07:17:40;;;;;;;2.65;2.03;;;;;;;46.93;3.60;100993.78;5029604;28;20029;-57
2022/09/10 07:20:06;;;;;;;2.47;1.75;;;;;;;47.09;3.70;101013.84;5031465;28;20060;-58
2022/09/10 07:22:31;;;;;;;1.80;1.40;;;;;;;47.29;3.57;101017.84;5032748;28;20126;-59
2022/09/10 07:24:58;;;;;;;2.08;1.70;;;;;;;47.27;3.52;101020.22;5033564;28;20033;-60
2022/09/10 07:27:24;;;;;;;1.63;1.52;;;;;;;47.23;3.32;101020.03;5025367;28;20029;-59
2022/09/10 07:29:50;;;;;;;1.98;1.88;;;;;;;47.08;3.37;101015.00;5025969;28;20040;-59
2022/09/10 07:32:17;;;;;;;3.03;2.05;;;;;;;47.09;3.70;101025.97;5026177;28;20029;-55
2022/09/10 07:34:43;;;;;;;3.75;1.60;;;;;;;46.87;3.32;101015.78;5022242;28;20106;-59
2022/09/10 07:37:08;;;;;;;1.13;1.13;;;;;;;46.30;3.71;101017.88;5016377;28;20034;-57
2022/09/10 07:39:34;;;;;;;2.08;1.75;;;;;;;45.71;3.90;101010.88;5013918;28;20075;-57
2022/09/10 07:41:59;;;;;;;2.10;2.00;;;;;;;45.19;4.02;101012.53;5012979;28;20041;-59
2022/09/10 07:44:25;;;;;;;2.38;1.70;;;;;;;44.76;4.17;101007.63;5014393;28;20329;-58
2022/09/10 07:46:53;;;;;;;1.70;1.60;;;;;;;43.67;5.02;101013.34;5029297;28;20026;-59
2022/09/10 07:49:20;;;;;;;2.47;1.73;;;;;;;42.61;5.52;101001.03;5032565;28;20056;-58
2022/09/10 07:51:45;;;;;;;2.15;1.83;;;;;;;41.98;5.92;100990.09;5019651;28;20049;-58
2022/09/10 07:54:15;;;;;;;2.88;1.92;;;;;;;41.52;5.78;101008.56;5020070;28;20034;-58
2022/09/10 07:56:41;;;;;;;1.65;1.55;;;;;;;40.22;6.54;101008.47;5018241;28;20033;-59
2022/09/10 07:59:06;;;;;;;3.78;1.77;;;;;;;37.87;7.43;100998.63;5031931;28;20104;-56
2022/09/10 08:01:33;;;;;;;2.15;1.80;;;;;;;35.00;9.55;100990.66;5013309;28;20064;-58
2022/09/10 08:03:59;;;;;;;1.92;1.70;;;;;;;32.21;11.34;101003.91;5013563;28;20065;-59
2022/09/10 08:06:25;;;;;;;6.15;1.63;;;;;;;29.72;13.04;101007.63;5015044;28;20052;-59
2022/09/10 08:08:51;;;;;;;5.28;2.35;;;;;;;27.34;15.40;100977.06;5023326;28;20129;-56
2022/09/10 08:11:17;;;;;;;2.05;1.80;;;;;;;25.71;16.72;100989.06;5030452;28;20113;-59
2022/09/10 08:13:45;;;;;;;2.65;1.60;;;;;;;24.28;18.84;100987.41;5029674;28;20037;-56
2022/09/10 08:16:14;;;;;;;4.47;1.90;;;;;;;23.07;20.20;100986.00;5032479;28;20064;-59
2022/09/10 08:18:40;;;;;;;4.30;2.22;;;;;;;22.17;21.46;100980.59;5022912;28;20030;-54
2022/09/10 08:21:09;;;;;;;5.43;2.28;;;;;;;21.57;21.71;100982.59;5018198;28;20029;-56
2022/09/10 08:23:36;;;;;;;2.60;2.25;;;;;;;20.95;22.47;100978.34;5022172;28;20481;-61
2022/09/10 08:26:04;;;;;;;5.18;2.83;;;;;;;20.37;23.46;100954.38;5028792;28;20397;-62
2022/09/10 08:28:29;;;;;;;6.22;2.00;;;;;;;20.11;24.21;100969.84;5013493;28;20353;-58
2022/09/10 08:31:00;;;;;;;5.50;1.80;;;;;;;19.68;25.03;100969.63;5012947;28;20029;-53
2022/09/10 08:33:28;;;;;;;1.85;1.60;;;;;;;19.20;26.09;100980.69;5026909;28;20382;-55
2022/09/10 08:35:56;;;;;;;3.92;1.70;;;;;;;18.96;25.60;100987.50;5031799;28;20041;-59
2022/09/10 08:38:42;;;;;;;3.53;1.63;;;;;;;19.05;24.64;100983.06;5029475;28;20048;-56
2022/09/10 08:41:25;;;;;;;3.65;1.80;;;;;;;18.65;26.18;100958.78;5013991;28;20533;-57
2022/09/10 08:43:53;;;;;;;1.98;1.80;;;;;;;18.67;26.33;100979.47;5013107;28;20037;-58
2022/09/10 08:46:28;;;;;;;3.03;1.52;;;;;;;18.63;25.85;100976.22;5010502;28;20037;-56
2022/09/10 08:49:05;;;;;;;6.97;2.00;;;;;;;18.54;25.83;100974.38;5015033;28;20060;-55
2022/09/10 08:51:41;;;;;;;4.20;1.98;;;;;;;18.30;26.52;100970.31;5029375;28;20346;-55
2022/09/10 08:54:10;;;;;;;;;;;;;;;18.65;24.21;100963.38;5029335;28;20026;-55
2022/09/10 08:56:38;;;;;;;3.92;1.98;;;;;;;18.30;26.66;100962.19;5027504;28;20362;-56
2022/09/10 08:59:16;;;;;;;7.63;2.08;;;;;;;18.32;26.55;100969.19;5031132;28;20040;-57
2022/09/10 09:01:55;;;;;;;2.55;1.80;;;;;;;18.32;27.00;100968.31;5031578;28;20547;-54
2022/09/10 09:04:43;;;;;;;2.88;1.75;;;;;;;18.39;26.07;100964.03;5028591;28;20113;-57
2022/09/10 09:07:21;;;;;;;4.40;1.92;;;;;;;18.24;26.81;100960.94;5013886;28;20050;-60
2022/09/10 09:09:52;;;;;;;5.10;2.30;;;;;;;18.17;27.14;100957.94;5020917;28;20116;-56
2022/09/10 09:12:49;;;;;;;2.75;1.85;;;;;;;18.34;26.56;100956.31;5011315;28;20052;-57
2022/09/10 09:15:36;;;;;;;5.88;2.00;;;;;;;18.32;26.58;100947.50;5020437;28;20070;-56
2022/09/10 09:18:09;;;;;;;3.45;2.00;;;;;;;18.18;26.98;100948.81;5031465;28;20057;-56
2022/09/10 09:20:55;;;;;;;6.85;1.80;;;;;;;18.07;27.53;100946.25;5025449;28;20037;-53
2022/09/10 09:23:31;;;;;;;5.40;2.00;;;;;;;18.12;27.70;100940.41;5010927;28;20504;-55
2022/09/10 09:26:08;;;;;;;5.75;1.90;;;;;;;18.12;27.46;100946.69;5011634;28;20116;-56
2022/09/10 09:28:49;;;;;;;7.15;2.08;;;;;;;18.05;27.43;100937.41;5015866;28;20099;-59
2022/09/10 09:31:27;;;;;;;7.68;2.08;;;;;;;18.02;27.49;100946.72;5011240;28;20030;-54
2022/09/10 09:33:59;;;;;;;4.90;1.80;;;;;;;17.90;27.49;100942.41;5015136;28;20075;-61
2022/09/10 09:36:36;;;;;;;3.10;1.77;;;;;;;17.91;27.31;100941.41;5030590;28;20040;-56
2022/09/10 09:39:13;;;;;;;2.47;1.80;;;;;;;17.84;27.90;100938.41;5014567;28;20034;-54
2022/09/10 09:41:48;;;;;;;5.38;1.98;;;;;;;17.88;27.73;100934.44;5027564;28;20125;-55
2022/09/10 09:44:17;;;;;;;3.20;2.10;;;;;;;17.88;28.12;100923.59;5012396;28;20048;-55
2022/09/10 09:46:43;;;;;;;2.88;2.10;;;;;;;17.94;27.97;100930.28;5024584;28;20032;-56
2022/09/10 09:49:15;;;;;;;2.50;1.60;;;;;;;18.00;27.43;100935.13;5024946;28;20077;-54
2022/09/10 09:51:45;;;;;;;2.47;1.92;;;;;;;18.05;27.76;100932.00;5012186;28;20378;-57
2022/09/10 09:54:16;;;;;;;2.97;2.13;;;;;;;18.05;27.90;100932.88;5016932;28;20494;-54
2022/09/10 09:56:48;;;;;;;4.18;1.90;;;;;;;17.88;28.14;100931.72;5028828;28;20029;-55
2022/09/10 09:59:28;;;;;;;5.75;2.30;;;;;;;17.81;27.69;100921.63;5027828;28;20051;-54
2022/09/10 10:01:59;;;;;;;2.85;1.85;;;;;;;17.73;28.01;100909.66;5011348;28;20040;-55
2022/09/10 10:04:29;;;;;;;3.72;2.10;;;;;;;17.72;27.98;100912.50;5012212;28;20049;-52
2022/09/10 10:07:00;;;;;;;3.08;1.90;;;;;;;17.84;28.20;100907.78;5015845;28;20050;-55
2022/09/10 10:09:32;;;;;;;7.07;2.30;;;;;;;17.52;28.50;100884.59;5022377;28;20038;-55
2022/09/10 10:12:04;;;;;;;6.15;2.42;;;;;;;17.68;28.21;100903.78;5029128;28;20065;-55
2022/09/10 10:14:29;;;;;;;4.75;1.90;;;;;;;17.71;27.99;100908.06;5015672;28;20084;-55
2022/09/10 10:16:56;;;;;;;4.03;1.92;;;;;;;17.71;27.56;100899.94;5014663;28;20490;-57
2022/09/10 10:19:24;;;;;;;4.63;1.88;;;;;;;17.81;27.70;100905.34;5032203;28;20025;-56
2022/09/10 10:21:50;;;;;;;4.72;2.30;;;;;;;17.79;27.04;100892.81;5030228;28;20038;-54
2022/09/10 10:24:32;;;;;;;4.55;2.22;;;;;;;17.97;27.39;100900.22;5034051;28;20051;-56
2022/09/10 10:26:59;;;;;;;3.83;1.60;;;;;;;17.89;27.60;100897.34;5018107;28;20045;-55
2022/09/10 10:29:26;;;;;;;5.57;2.17;;;;;;;17.87;27.46;100892.09;5028967;28;20499;-56
2022/09/10 10:31:52;;;;;;;5.97;2.30;;;;;;;17.72;27.62;100880.00;5031432;28;20030;-57
2022/09/10 10:34:31;;;;;;;6.05;1.98;;;;;;;17.91;26.94;100890.81;5026915;28;20046;-53
2022/09/10 10:37:06;;;;;;;4.28;1.85;;;;;;;18.02;26.39;100886.22;5015529;28;20068;-55
2022/09/10 10:39:44;;;;;;;;;;;;;;;18.31;26.03;100896.13;5024458;28;20398;-57
2022/09/10 10:42:23;;;;;;;2.03;1.65;;;;;;;18.07;26.27;100894.75;5034168;28;19909;-56
2022/09/10 10:45:01;;;;;;;4.10;1.70;;;;;;;17.97;26.00;100883.94;5018257;28;20533;-58
2022/09/10 10:47:44;;;;;;;4.43;1.83;;;;;;;17.72;26.58;100886.25;5021267;28;20045;-56
2022/09/10 10:50:28;;;;;;;4.63;2.20;;;;;;;17.70;26.68;100871.16;5018878;28;20045;-56
2022/09/10 10:53:15;;;;;;;3.83;2.15;;;;;;;17.72;26.48;100875.41;5020133;28;20040;-57
2022/09/10 10:55:49;;;;;;;3.83;1.98;;;;;;;17.78;26.32;100866.72;5018151;28;20132;-56
2022/09/10 10:58:32;;;;;;;4.70;1.85;;;;;;;17.74;26.74;100861.75;5025957;28;20041;-56
2022/09/10 11:01:03;;;;;;;2.83;2.10;;;;;;;17.71;26.86;100860.16;5022401;28;20477;-55
2022/09/10 11:04:05;;;;;;;4.95;2.13;;;;;;;17.70;26.32;100854.91;5026818;28;20042;-55
2022/09/10 11:06:43;;;;;;;3.50;1.85;;;;;;;17.59;26.24;100854.06;5030910;28;20045;-56
2022/09/10 11:09:22;;;;;;;5.72;2.00;;;;;;;17.49;26.49;100843.25;5018262;28;20053;-59
2022/09/10 11:12:02;;;;;;;6.50;2.00;;;;;;;17.53;26.56;100854.63;5013295;28;20071;-53
2022/09/10 11:14:59;;;;;;;3.03;2.05;;;;;;;17.48;26.61;100838.84;5014397;28;20121;-56
2022/09/10 11:17:34;;;;;;;3.88;1.98;;;;;;;17.45;26.50;100841.81;5020078;28;20115;-57
2022/09/10 11:20:06;;;;;;;5.20;2.30;;;;;;;17.42;26.66;100841.28;5032750;28;20037;-58
2022/09/10 11:22:38;;;;;;;3.30;1.98;;;;;;;17.30;26.94;100830.56;5030884;28;20041;-57
2022/09/10 11:25:26;;;;;;;7.25;2.08;;;;;;;17.32;26.72;100819.63;5013622;28;20136;-55
2022/09/10 11:28:05;;;;;;;3.92;1.70;;;;;;;17.29;27.14;100830.75;5016582;28;20442;-58
2022/09/10 11:30:33;;;;;;;5.55;3.50;;;;;;;17.16;27.50;100825.63;5031595;28;20144;-58
2022/09/10 11:33:09;;;;;;;4.38;2.35;;;;;;;17.03;27.39;100821.31;5033261;28;20037;-55
2022/09/10 11:35:43;;;;;;;5.57;2.67;;;;;;;16.85;27.53;100793.22;5032915;28;20056;-54
2022/09/10 11:38:23;;;;;;;5.55;2.38;;;;;;;16.96;27.57;100809.34;5018616;28;20065;-55